LFBDEBCI

Guest
Details From LFBD - Bordeaux Merignac
To EBCI - Brussels South - Charleroi
Flight Number -
Tags Generated
Created
Modified
Stats Distance 397 nm / 735 km
Max Altitude 0 ft / 0 m
Waypoints 3
Social Downloads 2
Likes 0
Share VATSIM

Download

Looking for another format? Having issues loading an existing format? Contact us
Advertisement - Login to hide

Notes

Generated

Route

LFBD MOPIL EBCI

ID Type Via Altitude Latitude Longitude Leg Dist Tot Dist Heading (true) Name
O LFBD APT - 0 ft / 0 m 44.83157˚ -0.72924˚ - 0 nm - -
MOPIL FIX - 0 ft / 0 m 50.14778˚ 4.10778˚ 374 nm 374 nm 30° / 33° -
O EBCI APT - 0 ft / 0 m 50.45539˚ 4.43664˚ 22 nm 396 nm 34° / 34° -

Altitude Profile

Advertisement - Login to hide

Weather


0- 5 10 15 20 25 30 35+ Temperature / ° C

Clouds and Precipitation
Forecast for 2018-05-28 00:00 UTC. Updated 10 hours ago

Ground ~20,000 ft ~40,000 ft Winds

LFBD

Details ICAO LFBD (BOD)
Name Bordeaux Merignac
Region France
Timezone Europe/Paris (UTC+2.0)
Stats Elevation 166 ft / 51 m (AMSL)
Location 44.828762° -0.714755°
Runways 2
Magnetic Variation 0.010° W

METAR

Not found

TAF

TAF AMD LFBD 280125Z 2801/2906 34005KT 9999 SCT012 BKN030 TEMPO 2801/2812 4000 SHRA BKN010 BKN050TCU PROB30 TEMPO 2801/2805 VRB15G25KT 2000 -TSRA BKN005 OVC040CB BECMG 2810/2812 VRB03KT BKN020 TEMPO 2812/2824 4000 SHRA BKN020TCU PROB30 2818/2824 VRB10G25KT 2000 TSRA BKN020CB BECMG 2900/2902 4000 BR BKN005 TEMPO 2902/2906 1200 BCFG BKN002 TX22/2814Z TN15/2804Z

Decode

Departure Runways

ID Width Length Bearing (true) Bearing (mag) Surface Threshold Offset Overrun Length
05 148 ft / 45 m 10,164 ft / 3,098 m 45.48° 45.49° Asphalt 26 ft / 8 m 1,145 ft / 349 m
11 148 ft / 45 m 7,931 ft / 2,417 m 106.45° 106.46° Asphalt 26 ft / 8 m 1,198 ft / 365 m
23 148 ft / 45 m 10,164 ft / 3,098 m 225.50° 225.51° Asphalt 39 ft / 12 m 1,266 ft / 386 m
29 148 ft / 45 m 7,931 ft / 2,417 m 286.47° 286.48° Asphalt 33 ft / 10 m 1,201 ft / 366 m

EBCI

Details ICAO EBCI (CRL)
Name Brussels South - Charleroi
Region Belgium
Timezone Europe/Brussels (UTC+2.0)
Stats Elevation 614 ft / 187 m (AMSL)
Location 50.459947° 4.453125°
Runways 1
Magnetic Variation 1.195° E

METAR

Not found

TAF

TAF EBCI 272310Z 2800/2906 VRB03KT 9999 FEW025 PROB40 TEMPO 2800/2803 4000 SHRA PROB40 TEMPO 2802/2806 3000 BR PROB30 TEMPO 2816/2824 VRB15G25KT 3500 SHRA TSRA

Decode

Destination Runways

ID Width Length Bearing (true) Bearing (mag) Surface Threshold Offset Overrun Length
07 148 ft / 45 m 8,374 ft / 2,552 m 65.53° 64.33° Asphalt 1,476 ft / 450 m 0 ft / 0 m
25 148 ft / 45 m 8,374 ft / 2,552 m 245.55° 244.35° Asphalt 0 ft / 0 m 0 ft / 0 m

Approach Navaids

Runway Type Ident Frequency Range Bearing (true) Bearing (mag) Slope Elevation
25 Localiser IGC 110.90 MHz 18 nm / 33 km 245.54° 244.34° - 614 ft / 187 m (AMSL)
25 Glidescope IGC 110.90 MHz 10 nm / 19 km 245.54° 244.34° 3.00° 614 ft / 187 m (AMSL)

Popular Alternatives